Airfield :
LOGIN :

Register | Disclaimer

   EN    FR    IT 

 










Legend :    VFR   Marginal VFR   IFR   Intensive IFR   Very Intensive IFR
Visi :
Ceiling :
>= 8 km
>= 3000ft
5 to 8 km
1000 to 3000 ft
1500m to 5 km
500 to 1000 ft
800 to 1500m
200 to 500 ft
< 800m
< 200 ft
Symbols :   Thunderstorms  Fog  Heavy snow  Heavy precipitations  Wind > 20 kt
SIGMETs :     Misc.  Thunderstorms  Icing  Turbulence  Mountain Waves  Volcanic Ashes







- Airport Elevation : 39 ft
- IATA code : ANR


EBAW - Anvers / Antwerpen Deurne

CURRENT METAR :
  • 171920Z 26007KT 9999 -SHRASN FEW015 BKN040 03/00 Q1012 TEMPO 3000 SHRAGS SCT008 BKN014CB

EXPIRED METARs :
  • 171850Z 30006KT 260V330 9999 -SHRASN FEW015 BKN040 04/00 Q1012 TEMPO 30025G35KT 3000 SHRAGS SCT008 BKN014CB
  • 171820Z 29007KT 9999 FEW015 BKN040 04/01 Q1011 RESHRA RESHSN TEMPO 30025G35KT 3000 SHRAGS SCT008 BKN014CB
  • 171750Z 32013KT 290V350 7000 SHRASN SCT012 BKN020 03/01 Q1010 TEMPO 30025G35KT 3000 SHRAGS SCT008 BKN014CB
  • 171720Z 29010KT 6000 SHRASN SCT012 BKN020 03/01 Q1010 TEMPO 30025G35KT 3000 SHRAGS SCT008 BKN014CB
  • 171650Z 29014KT 9999 -SHSNRA FEW010 SCT013 BKN023 04/01 Q1009 TEMPO 30025G35KT 3000 SHRAGS SCT008 BKN014CB

TAF TAF EBAW
Valid from the 17 at 18:00 until the 18 at 03:00 UTC


171720Z 1718/1803 30012KT 9999 SCT010 BKN020
TEMPO 1718/1803 3500 SHRA SCT008 BKN014CB
PROB30
TEMPO 1718/1803 2500 SHSN BKN005 BKN012TCU
No reported NOTAMs for that airfield.



MET'MAP, your aeronautical weather chart ! - Copyright ORBIFLY December 2007 - Disclaimer

ORBIFLY MET'MAP TEAM :

Programming & Development : Alexandra Zaïnal
Concept & Development : Baudouin d'Aumeries
Co-Development & Prog : Marc-Olivier Méhu
Technical & hardware support : Manuel Goepfert

Contact : metmap@orbifly.com




SOURCES & CREDITS :

   NOAA